sensor_id;sensor_type;location;lat;lon;timestamp;P1;durP1;ratioP1;P2;durP2;ratioP2
38085;SDS011;23896;50.678;10.924;2023-07-13T00:00:33;1.02;;;1.00;;
38085;SDS011;23896;50.678;10.924;2023-07-13T00:03:04;1.65;;;1.00;;
38085;SDS011;23896;50.678;10.924;2023-07-13T00:05:33;1.80;;;1.10;;
38085;SDS011;23896;50.678;10.924;2023-07-13T00:07:59;1.35;;;1.15;;
38085;SDS011;23896;50.678;10.924;2023-07-13T00:10:28;2.22;;;1.10;;
38085;SDS011;23896;50.678;10.924;2023-07-13T00:12:57;1.38;;;1.27;;
38085;SDS011;23896;50.678;10.924;2023-07-13T00:15:27;1.33;;;1.08;;
38085;SDS011;23896;50.678;10.924;2023-07-13T00:17:55;1.55;;;1.20;;
38085;SDS011;23896;50.678;10.924;2023-07-13T00:20:22;2.88;;;1.30;;
38085;SDS011;23896;50.678;10.924;2023-07-13T00:22:50;1.25;;;1.00;;
38085;SDS011;23896;50.678;10.924;2023-07-13T00:25:19;1.50;;;1.40;;
38085;SDS011;23896;50.678;10.924;2023-07-13T00:27:46;2.33;;;1.00;;
38085;SDS011;23896;50.678;10.924;2023-07-13T00:30:14;2.20;;;1.20;;
38085;SDS011;23896;50.678;10.924;2023-07-13T00:32:40;2.53;;;1.40;;
38085;SDS011;23896;50.678;10.924;2023-07-13T00:35:10;3.03;;;1.40;;
38085;SDS011;23896;50.678;10.924;2023-07-13T00:37:36;3.60;;;1.17;;
38085;SDS011;23896;50.678;10.924;2023-07-13T00:40:03;1.63;;;1.10;;
38085;SDS011;23896;50.678;10.924;2023-07-13T00:42:30;4.47;;;1.52;;
38085;SDS011;23896;50.678;10.924;2023-07-13T00:45:00;1.55;;;1.15;;
38085;SDS011;23896;50.678;10.924;2023-07-13T00:47:27;2.33;;;1.15;;
38085;SDS011;23896;50.678;10.924;2023-07-13T00:49:53;2.42;;;1.20;;
38085;SDS011;23896;50.678;10.924;2023-07-13T00:52:19;2.83;;;1.13;;
38085;SDS011;23896;50.678;10.924;2023-07-13T00:54:45;2.55;;;1.33;;
38085;SDS011;23896;50.678;10.924;2023-07-13T00:57:14;1.83;;;1.30;;
38085;SDS011;23896;50.678;10.924;2023-07-13T00:59:43;2.20;;;1.38;;
38085;SDS011;23896;50.678;10.924;2023-07-13T01:02:11;2.65;;;1.27;;
38085;SDS011;23896;50.678;10.924;2023-07-13T01:04:37;1.33;;;1.20;;
38085;SDS011;23896;50.678;10.924;2023-07-13T01:07:04;2.28;;;1.38;;
38085;SDS011;23896;50.678;10.924;2023-07-13T01:09:34;15.07;;;1.33;;
38085;SDS011;23896;50.678;10.924;2023-07-13T01:12:00;1.85;;;1.50;;
38085;SDS011;23896;50.678;10.924;2023-07-13T01:14:26;2.00;;;1.30;;
38085;SDS011;23896;50.678;10.924;2023-07-13T01:16:52;1.48;;;1.33;;
38085;SDS011;23896;50.678;10.924;2023-07-13T01:19:22;2.03;;;1.02;;
38085;SDS011;23896;50.678;10.924;2023-07-13T01:21:51;6.80;;;1.83;;
38085;SDS011;23896;50.678;10.924;2023-07-13T01:24:17;2.45;;;1.50;;
38085;SDS011;23896;50.678;10.924;2023-07-13T01:26:47;1.33;;;1.23;;
38085;SDS011;23896;50.678;10.924;2023-07-13T01:29:13;3.55;;;1.35;;
38085;SDS011;23896;50.678;10.924;2023-07-13T01:31:39;3.28;;;1.65;;
38085;SDS011;23896;50.678;10.924;2023-07-13T01:34:08;1.17;;;1.08;;
38085;SDS011;23896;50.678;10.924;2023-07-13T01:36:36;2.72;;;1.58;;
38085;SDS011;23896;50.678;10.924;2023-07-13T01:39:02;2.80;;;1.00;;
38085;SDS011;23896;50.678;10.924;2023-07-13T01:41:28;2.53;;;0.95;;
38085;SDS011;23896;50.678;10.924;2023-07-13T01:43:54;2.35;;;1.60;;
38085;SDS011;23896;50.678;10.924;2023-07-13T01:46:24;2.40;;;1.20;;
38085;SDS011;23896;50.678;10.924;2023-07-13T01:48:50;1.75;;;1.50;;
38085;SDS011;23896;50.678;10.924;2023-07-13T01:51:20;2.38;;;1.30;;
38085;SDS011;23896;50.678;10.924;2023-07-13T01:53:46;3.72;;;1.33;;
38085;SDS011;23896;50.678;10.924;2023-07-13T01:56:12;3.90;;;1.23;;
38085;SDS011;23896;50.678;10.924;2023-07-13T01:58:38;1.70;;;1.35;;
38085;SDS011;23896;50.678;10.924;2023-07-13T02:01:04;2.95;;;1.73;;
38085;SDS011;23896;50.678;10.924;2023-07-13T02:03:31;3.10;;;1.52;;
38085;SDS011;23896;50.678;10.924;2023-07-13T02:05:59;3.10;;;1.83;;
38085;SDS011;23896;50.678;10.924;2023-07-13T02:08:25;2.55;;;1.20;;
38085;SDS011;23896;50.678;10.924;2023-07-13T02:10:51;4.15;;;1.25;;
38085;SDS011;23896;50.678;10.924;2023-07-13T02:13:17;2.15;;;1.30;;
38085;SDS011;23896;50.678;10.924;2023-07-13T02:15:49;4.00;;;1.20;;
38085;SDS011;23896;50.678;10.924;2023-07-13T02:18:15;2.72;;;1.48;;
38085;SDS011;23896;50.678;10.924;2023-07-13T02:20:45;1.85;;;1.50;;
38085;SDS011;23896;50.678;10.924;2023-07-13T02:23:11;1.40;;;1.30;;
38085;SDS011;23896;50.678;10.924;2023-07-13T02:25:38;1.55;;;1.17;;
38085;SDS011;23896;50.678;10.924;2023-07-13T02:28:04;1.90;;;1.42;;
38085;SDS011;23896;50.678;10.924;2023-07-13T02:30:33;3.90;;;1.50;;
38085;SDS011;23896;50.678;10.924;2023-07-13T02:33:00;3.25;;;1.50;;
38085;SDS011;23896;50.678;10.924;2023-07-13T02:35:29;2.45;;;1.23;;
38085;SDS011;23896;50.678;10.924;2023-07-13T02:37:55;3.22;;;1.70;;
38085;SDS011;23896;50.678;10.924;2023-07-13T02:40:22;2.35;;;1.38;;
38085;SDS011;23896;50.678;10.924;2023-07-13T02:42:54;4.30;;;1.20;;
38085;SDS011;23896;50.678;10.924;2023-07-13T02:45:20;2.17;;;1.42;;
38085;SDS011;23896;50.678;10.924;2023-07-13T02:47:46;2.33;;;1.23;;
38085;SDS011;23896;50.678;10.924;2023-07-13T02:50:12;1.63;;;1.23;;
38085;SDS011;23896;50.678;10.924;2023-07-13T02:52:39;1.52;;;1.42;;
38085;SDS011;23896;50.678;10.924;2023-07-13T02:55:05;3.67;;;1.35;;
38085;SDS011;23896;50.678;10.924;2023-07-13T02:57:31;2.42;;;1.40;;
38085;SDS011;23896;50.678;10.924;2023-07-13T02:59:58;2.45;;;1.30;;
38085;SDS011;23896;50.678;10.924;2023-07-13T03:02:25;1.85;;;1.40;;
38085;SDS011;23896;50.678;10.924;2023-07-13T03:04:53;2.83;;;1.00;;
38085;SDS011;23896;50.678;10.924;2023-07-13T03:07:19;1.42;;;1.33;;
38085;SDS011;23896;50.678;10.924;2023-07-13T03:09:45;3.10;;;1.40;;
38085;SDS011;23896;50.678;10.924;2023-07-13T03:12:12;1.80;;;1.52;;
38085;SDS011;23896;50.678;10.924;2023-07-13T03:14:38;3.78;;;1.35;;
38085;SDS011;23896;50.678;10.924;2023-07-13T03:17:04;1.30;;;1.20;;
38085;SDS011;23896;50.678;10.924;2023-07-13T03:19:33;1.52;;;1.20;;
38085;SDS011;23896;50.678;10.924;2023-07-13T03:22:00;1.98;;;1.20;;
38085;SDS011;23896;50.678;10.924;2023-07-13T03:24:32;1.73;;;1.38;;
38085;SDS011;23896;50.678;10.924;2023-07-13T03:26:58;1.43;;;1.33;;
38085;SDS011;23896;50.678;10.924;2023-07-13T03:29:25;2.85;;;1.50;;
38085;SDS011;23896;50.678;10.924;2023-07-13T03:31:52;2.78;;;1.88;;
38085;SDS011;23896;50.678;10.924;2023-07-13T03:34:18;4.53;;;1.42;;
38085;SDS011;23896;50.678;10.924;2023-07-13T03:36:44;3.22;;;1.70;;
38085;SDS011;23896;50.678;10.924;2023-07-13T03:39:10;1.60;;;1.42;;
38085;SDS011;23896;50.678;10.924;2023-07-13T03:41:36;2.47;;;1.73;;
38085;SDS011;23896;50.678;10.924;2023-07-13T03:44:02;2.65;;;1.92;;
38085;SDS011;23896;50.678;10.924;2023-07-13T03:46:29;3.55;;;1.80;;
38085;SDS011;23896;50.678;10.924;2023-07-13T03:48:55;2.65;;;1.63;;
38085;SDS011;23896;50.678;10.924;2023-07-13T03:51:22;1.83;;;1.20;;
38085;SDS011;23896;50.678;10.924;2023-07-13T03:53:49;1.70;;;1.58;;
38085;SDS011;23896;50.678;10.924;2023-07-13T03:56:18;3.42;;;1.52;;
38085;SDS011;23896;50.678;10.924;2023-07-13T03:58:45;2.63;;;1.67;;
38085;SDS011;23896;50.678;10.924;2023-07-13T04:01:12;4.28;;;1.58;;
38085;SDS011;23896;50.678;10.924;2023-07-13T04:03:39;1.63;;;1.23;;
38085;SDS011;23896;50.678;10.924;2023-07-13T04:06:06;2.35;;;1.63;;
38085;SDS011;23896;50.678;10.924;2023-07-13T04:08:34;2.28;;;1.40;;
38085;SDS011;23896;50.678;10.924;2023-07-13T04:11:00;3.35;;;1.60;;
38085;SDS011;23896;50.678;10.924;2023-07-13T04:13:27;3.38;;;1.67;;
38085;SDS011;23896;50.678;10.924;2023-07-13T04:15:53;1.50;;;1.40;;
38085;SDS011;23896;50.678;10.924;2023-07-13T04:18:20;3.20;;;1.38;;
38085;SDS011;23896;50.678;10.924;2023-07-13T04:20:46;4.05;;;1.20;;
38085;SDS011;23896;50.678;10.924;2023-07-13T04:23:14;1.88;;;1.60;;
38085;SDS011;23896;50.678;10.924;2023-07-13T04:25:43;3.20;;;1.63;;
38085;SDS011;23896;50.678;10.924;2023-07-13T04:28:09;4.05;;;1.63;;
38085;SDS011;23896;50.678;10.924;2023-07-13T04:30:35;5.65;;;1.98;;
38085;SDS011;23896;50.678;10.924;2023-07-13T04:33:02;2.95;;;1.67;;
38085;SDS011;23896;50.678;10.924;2023-07-13T04:35:29;2.13;;;1.65;;
38085;SDS011;23896;50.678;10.924;2023-07-13T04:37:56;5.05;;;1.60;;
38085;SDS011;23896;50.678;10.924;2023-07-13T04:40:26;2.72;;;1.70;;
38085;SDS011;23896;50.678;10.924;2023-07-13T04:42:53;8.68;;;2.35;;
38085;SDS011;23896;50.678;10.924;2023-07-13T04:45:19;6.50;;;2.25;;
38085;SDS011;23896;50.678;10.924;2023-07-13T04:47:46;3.92;;;1.65;;
38085;SDS011;23896;50.678;10.924;2023-07-13T04:50:15;1.98;;;1.20;;
38085;SDS011;23896;50.678;10.924;2023-07-13T04:52:46;4.57;;;1.70;;
38085;SDS011;23896;50.678;10.924;2023-07-13T04:55:12;3.50;;;1.60;;
38085;SDS011;23896;50.678;10.924;2023-07-13T04:57:38;4.53;;;1.73;;
38085;SDS011;23896;50.678;10.924;2023-07-13T05:00:05;2.58;;;1.90;;
38085;SDS011;23896;50.678;10.924;2023-07-13T05:02:32;3.75;;;1.88;;
38085;SDS011;23896;50.678;10.924;2023-07-13T05:05:00;3.33;;;2.10;;
38085;SDS011;23896;50.678;10.924;2023-07-13T05:07:26;6.00;;;1.77;;
38085;SDS011;23896;50.678;10.924;2023-07-13T05:09:52;4.80;;;2.15;;
38085;SDS011;23896;50.678;10.924;2023-07-13T05:12:19;2.45;;;1.80;;
38085;SDS011;23896;50.678;10.924;2023-07-13T05:14:45;4.93;;;2.25;;
38085;SDS011;23896;50.678;10.924;2023-07-13T05:17:11;2.83;;;1.70;;
38085;SDS011;23896;50.678;10.924;2023-07-13T05:19:37;3.60;;;1.92;;
38085;SDS011;23896;50.678;10.924;2023-07-13T05:22:13;5.72;;;2.00;;
38085;SDS011;23896;50.678;10.924;2023-07-13T05:24:39;2.85;;;1.42;;
38085;SDS011;23896;50.678;10.924;2023-07-13T05:27:08;5.22;;;1.90;;
38085;SDS011;23896;50.678;10.924;2023-07-13T05:29:41;3.78;;;1.75;;
38085;SDS011;23896;50.678;10.924;2023-07-13T05:32:08;4.00;;;1.92;;
38085;SDS011;23896;50.678;10.924;2023-07-13T05:34:36;7.82;;;5.05;;
38085;SDS011;23896;50.678;10.924;2023-07-13T05:37:08;4.75;;;1.90;;
38085;SDS011;23896;50.678;10.924;2023-07-13T05:39:35;5.57;;;1.95;;
38085;SDS011;23896;50.678;10.924;2023-07-13T05:42:01;2.25;;;1.85;;
38085;SDS011;23896;50.678;10.924;2023-07-13T05:44:40;2.83;;;1.58;;
38085;SDS011;23896;50.678;10.924;2023-07-13T05:47:12;3.08;;;1.67;;
38085;SDS011;23896;50.678;10.924;2023-07-13T05:49:40;4.70;;;2.13;;
38085;SDS011;23896;50.678;10.924;2023-07-13T05:52:12;4.43;;;1.77;;
38085;SDS011;23896;50.678;10.924;2023-07-13T05:54:38;6.00;;;2.00;;
38085;SDS011;23896;50.678;10.924;2023-07-13T05:57:04;3.72;;;1.98;;
38085;SDS011;23896;50.678;10.924;2023-07-13T06:00:22;3.67;;;1.75;;
38085;SDS011;23896;50.678;10.924;2023-07-13T06:02:27;3.42;;;1.83;;
38085;SDS011;23896;50.678;10.924;2023-07-13T06:04:53;4.03;;;2.00;;
38085;SDS011;23896;50.678;10.924;2023-07-13T06:07:20;6.50;;;2.30;;
38085;SDS011;23896;50.678;10.924;2023-07-13T06:09:49;3.10;;;1.98;;
38085;SDS011;23896;50.678;10.924;2023-07-13T06:12:16;3.97;;;2.30;;
38085;SDS011;23896;50.678;10.924;2023-07-13T06:14:42;4.40;;;2.00;;
38085;SDS011;23896;50.678;10.924;2023-07-13T06:17:08;5.03;;;2.30;;
38085;SDS011;23896;50.678;10.924;2023-07-13T06:19:34;8.52;;;4.40;;
38085;SDS011;23896;50.678;10.924;2023-07-13T06:22:01;8.75;;;2.72;;
38085;SDS011;23896;50.678;10.924;2023-07-13T06:24:29;3.42;;;2.08;;
38085;SDS011;23896;50.678;10.924;2023-07-13T06:26:56;6.38;;;2.28;;
38085;SDS011;23896;50.678;10.924;2023-07-13T06:29:25;7.18;;;3.10;;
38085;SDS011;23896;50.678;10.924;2023-07-13T06:31:51;7.28;;;2.55;;
38085;SDS011;23896;50.678;10.924;2023-07-13T06:34:18;7.22;;;2.75;;
38085;SDS011;23896;50.678;10.924;2023-07-13T06:36:47;4.97;;;3.00;;
38085;SDS011;23896;50.678;10.924;2023-07-13T06:39:16;6.25;;;1.92;;
38085;SDS011;23896;50.678;10.924;2023-07-13T06:41:43;4.00;;;2.25;;
38085;SDS011;23896;50.678;10.924;2023-07-13T06:44:09;8.20;;;1.75;;
38085;SDS011;23896;50.678;10.924;2023-07-13T06:46:35;5.22;;;2.05;;
38085;SDS011;23896;50.678;10.924;2023-07-13T06:49:01;4.25;;;1.77;;
38085;SDS011;23896;50.678;10.924;2023-07-13T06:51:27;6.32;;;1.95;;
38085;SDS011;23896;50.678;10.924;2023-07-13T06:53:54;7.07;;;1.55;;
38085;SDS011;23896;50.678;10.924;2023-07-13T06:56:21;4.60;;;2.20;;
38085;SDS011;23896;50.678;10.924;2023-07-13T06:58:48;2.13;;;1.50;;
38085;SDS011;23896;50.678;10.924;2023-07-13T07:01:17;3.25;;;1.58;;
38085;SDS011;23896;50.678;10.924;2023-07-13T07:03:51;2.10;;;1.67;;
38085;SDS011;23896;50.678;10.924;2023-07-13T07:06:20;2.67;;;1.50;;
38085;SDS011;23896;50.678;10.924;2023-07-13T07:08:49;4.55;;;1.90;;
38085;SDS011;23896;50.678;10.924;2023-07-13T07:11:17;6.05;;;1.55;;
38085;SDS011;23896;50.678;10.924;2023-07-13T07:13:48;3.20;;;1.38;;
38085;SDS011;23896;50.678;10.924;2023-07-13T07:16:14;8.45;;;1.85;;
38085;SDS011;23896;50.678;10.924;2023-07-13T07:18:42;2.47;;;1.42;;
38085;SDS011;23896;50.678;10.924;2023-07-13T07:21:12;3.28;;;1.60;;
38085;SDS011;23896;50.678;10.924;2023-07-13T07:23:39;2.67;;;1.45;;
38085;SDS011;23896;50.678;10.924;2023-07-13T07:26:06;2.47;;;1.67;;
38085;SDS011;23896;50.678;10.924;2023-07-13T07:28:35;6.30;;;1.40;;
38085;SDS011;23896;50.678;10.924;2023-07-13T07:31:02;3.05;;;1.30;;
38085;SDS011;23896;50.678;10.924;2023-07-13T07:33:29;1.65;;;1.40;;
38085;SDS011;23896;50.678;10.924;2023-07-13T07:35:55;2.17;;;1.50;;
38085;SDS011;23896;50.678;10.924;2023-07-13T07:38:21;11.38;;;2.15;;
38085;SDS011;23896;50.678;10.924;2023-07-13T07:40:49;3.72;;;1.35;;
38085;SDS011;23896;50.678;10.924;2023-07-13T07:43:15;1.60;;;1.30;;
38085;SDS011;23896;50.678;10.924;2023-07-13T07:45:41;3.35;;;1.42;;
38085;SDS011;23896;50.678;10.924;2023-07-13T07:48:08;2.17;;;2.08;;
38085;SDS011;23896;50.678;10.924;2023-07-13T07:50:34;3.53;;;1.70;;
38085;SDS011;23896;50.678;10.924;2023-07-13T07:53:01;2.25;;;1.30;;
38085;SDS011;23896;50.678;10.924;2023-07-13T07:55:28;3.90;;;1.40;;
38085;SDS011;23896;50.678;10.924;2023-07-13T07:58:01;1.50;;;1.00;;
38085;SDS011;23896;50.678;10.924;2023-07-13T08:00:27;2.33;;;1.15;;
38085;SDS011;23896;50.678;10.924;2023-07-13T08:02:57;2.08;;;1.08;;
38085;SDS011;23896;50.678;10.924;2023-07-13T08:05:24;6.07;;;1.25;;
38085;SDS011;23896;50.678;10.924;2023-07-13T08:07:51;0.82;;;0.82;;
38085;SDS011;23896;50.678;10.924;2023-07-13T08:10:20;1.25;;;1.17;;
38085;SDS011;23896;50.678;10.924;2023-07-13T08:12:47;1.75;;;1.10;;
38085;SDS011;23896;50.678;10.924;2023-07-13T08:15:15;2.00;;;1.20;;
38085;SDS011;23896;50.678;10.924;2023-07-13T08:17:42;3.45;;;1.10;;
38085;SDS011;23896;50.678;10.924;2023-07-13T08:20:08;1.13;;;0.90;;
38085;SDS011;23896;50.678;10.924;2023-07-13T08:22:35;1.15;;;0.90;;
38085;SDS011;23896;50.678;10.924;2023-07-13T08:25:01;4.03;;;1.00;;
38085;SDS011;23896;50.678;10.924;2023-07-13T08:27:28;1.92;;;0.80;;
38085;SDS011;23896;50.678;10.924;2023-07-13T08:29:56;1.27;;;1.05;;
38085;SDS011;23896;50.678;10.924;2023-07-13T08:32:23;1.30;;;1.20;;
38085;SDS011;23896;50.678;10.924;2023-07-13T08:34:50;2.67;;;1.20;;
38085;SDS011;23896;50.678;10.924;2023-07-13T08:37:16;0.90;;;0.90;;
38085;SDS011;23896;50.678;10.924;2023-07-13T08:39:43;2.70;;;1.08;;
38085;SDS011;23896;50.678;10.924;2023-07-13T08:42:13;1.33;;;1.00;;
38085;SDS011;23896;50.678;10.924;2023-07-13T08:44:45;1.30;;;0.75;;
38085;SDS011;23896;50.678;10.924;2023-07-13T08:47:15;1.15;;;0.98;;
38085;SDS011;23896;50.678;10.924;2023-07-13T08:49:45;4.75;;;0.90;;
38085;SDS011;23896;50.678;10.924;2023-07-13T08:52:15;1.77;;;1.00;;
38085;SDS011;23896;50.678;10.924;2023-07-13T08:54:44;1.08;;;0.88;;
38085;SDS011;23896;50.678;10.924;2023-07-13T08:57:17;2.10;;;0.93;;
38085;SDS011;23896;50.678;10.924;2023-07-13T08:59:44;1.70;;;1.00;;
38085;SDS011;23896;50.678;10.924;2023-07-13T09:02:23;2.33;;;0.90;;
38085;SDS011;23896;50.678;10.924;2023-07-13T09:04:54;1.77;;;1.25;;
38085;SDS011;23896;50.678;10.924;2023-07-13T09:07:29;0.70;;;0.70;;
38085;SDS011;23896;50.678;10.924;2023-07-13T09:10:01;0.80;;;0.80;;
38085;SDS011;23896;50.678;10.924;2023-07-13T09:12:35;1.23;;;0.93;;
38085;SDS011;23896;50.678;10.924;2023-07-13T09:15:14;2.60;;;0.70;;
38085;SDS011;23896;50.678;10.924;2023-07-13T09:17:48;1.08;;;0.98;;
38085;SDS011;23896;50.678;10.924;2023-07-13T09:20:21;0.63;;;0.60;;
38085;SDS011;23896;50.678;10.924;2023-07-13T09:22:49;0.80;;;0.80;;
38085;SDS011;23896;50.678;10.924;2023-07-13T09:25:32;2.22;;;0.88;;
38085;SDS011;23896;50.678;10.924;2023-07-13T09:28:00;0.63;;;0.63;;
38085;SDS011;23896;50.678;10.924;2023-07-13T09:30:37;1.50;;;0.90;;
38085;SDS011;23896;50.678;10.924;2023-07-13T09:33:06;0.82;;;0.60;;
38085;SDS011;23896;50.678;10.924;2023-07-13T09:35:34;1.42;;;1.13;;
38085;SDS011;23896;50.678;10.924;2023-07-13T09:38:04;1.15;;;1.10;;
38085;SDS011;23896;50.678;10.924;2023-07-13T09:40:43;0.85;;;0.80;;
38085;SDS011;23896;50.678;10.924;2023-07-13T09:43:12;0.82;;;0.70;;
38085;SDS011;23896;50.678;10.924;2023-07-13T09:45:39;0.60;;;0.60;;
38085;SDS011;23896;50.678;10.924;2023-07-13T09:48:12;1.95;;;0.70;;
38085;SDS011;23896;50.678;10.924;2023-07-13T09:50:40;1.95;;;0.70;;
38085;SDS011;23896;50.678;10.924;2023-07-13T09:53:12;0.60;;;0.60;;
38085;SDS011;23896;50.678;10.924;2023-07-13T09:55:40;0.82;;;0.82;;
38085;SDS011;23896;50.678;10.924;2023-07-13T09:58:09;1.48;;;0.75;;
38085;SDS011;23896;50.678;10.924;2023-07-13T10:00:37;0.85;;;0.80;;
38085;SDS011;23896;50.678;10.924;2023-07-13T10:03:16;0.70;;;0.70;;
38085;SDS011;23896;50.678;10.924;2023-07-13T10:05:47;2.65;;;1.05;;
38085;SDS011;23896;50.678;10.924;2023-07-13T10:08:18;0.63;;;0.63;;
38085;SDS011;23896;50.678;10.924;2023-07-13T10:10:45;0.70;;;0.70;;
38085;SDS011;23896;50.678;10.924;2023-07-13T10:13:24;3.30;;;0.70;;
38085;SDS011;23896;50.678;10.924;2023-07-13T10:15:52;1.10;;;0.90;;
38085;SDS011;23896;50.678;10.924;2023-07-13T10:18:22;0.80;;;0.80;;
38085;SDS011;23896;50.678;10.924;2023-07-13T10:20:50;1.45;;;0.85;;
38085;SDS011;23896;50.678;10.924;2023-07-13T10:23:21;1.98;;;0.80;;
38085;SDS011;23896;50.678;10.924;2023-07-13T10:25:48;2.63;;;0.88;;
38085;SDS011;23896;50.678;10.924;2023-07-13T10:28:25;0.85;;;0.82;;
38085;SDS011;23896;50.678;10.924;2023-07-13T10:30:53;0.75;;;0.70;;
38085;SDS011;23896;50.678;10.924;2023-07-13T10:33:21;2.50;;;1.00;;
38085;SDS011;23896;50.678;10.924;2023-07-13T10:35:48;1.77;;;1.00;;
38085;SDS011;23896;50.678;10.924;2023-07-13T10:38:20;0.70;;;0.70;;
38085;SDS011;23896;50.678;10.924;2023-07-13T10:40:56;2.30;;;0.90;;
38085;SDS011;23896;50.678;10.924;2023-07-13T10:43:35;2.05;;;1.02;;
38085;SDS011;23896;50.678;10.924;2023-07-13T10:46:04;1.55;;;1.27;;
38085;SDS011;23896;50.678;10.924;2023-07-13T10:48:34;1.13;;;0.95;;
38085;SDS011;23896;50.678;10.924;2023-07-13T10:51:08;1.83;;;1.10;;
38085;SDS011;23896;50.678;10.924;2023-07-13T10:53:47;1.08;;;0.85;;
38085;SDS011;23896;50.678;10.924;2023-07-13T10:56:19;1.52;;;1.00;;
38085;SDS011;23896;50.678;10.924;2023-07-13T10:58:46;2.65;;;1.38;;
38085;SDS011;23896;50.678;10.924;2023-07-13T11:01:17;1.50;;;1.10;;
38085;SDS011;23896;50.678;10.924;2023-07-13T11:03:49;1.50;;;1.40;;
38085;SDS011;23896;50.678;10.924;2023-07-13T11:08:57;2.05;;;1.40;;
38085;SDS011;23896;50.678;10.924;2023-07-13T11:11:33;1.53;;;1.07;;
38085;SDS011;23896;50.678;10.924;2023-07-13T11:14:01;1.77;;;1.40;;
38085;SDS011;23896;50.678;10.924;2023-07-13T11:16:36;0.90;;;0.90;;
38085;SDS011;23896;50.678;10.924;2023-07-13T11:22:12;2.53;;;1.20;;
38085;SDS011;23896;50.678;10.924;2023-07-13T11:24:51;1.30;;;0.95;;
38085;SDS011;23896;50.678;10.924;2023-07-13T11:27:22;2.80;;;1.00;;
38085;SDS011;23896;50.678;10.924;2023-07-13T11:29:49;6.65;;;1.40;;
38085;SDS011;23896;50.678;10.924;2023-07-13T11:32:21;1.73;;;1.50;;
38085;SDS011;23896;50.678;10.924;2023-07-13T11:34:53;2.15;;;1.50;;
38085;SDS011;23896;50.678;10.924;2023-07-13T11:37:20;1.50;;;1.40;;
38085;SDS011;23896;50.678;10.924;2023-07-13T11:39:47;2.45;;;1.40;;
38085;SDS011;23896;50.678;10.924;2023-07-13T11:42:18;1.15;;;1.00;;
38085;SDS011;23896;50.678;10.924;2023-07-13T11:44:58;1.10;;;1.00;;
38085;SDS011;23896;50.678;10.924;2023-07-13T11:47:47;1.45;;;1.20;;
38085;SDS011;23896;50.678;10.924;2023-07-13T11:50:20;1.38;;;0.98;;
38085;SDS011;23896;50.678;10.924;2023-07-13T11:52:47;4.25;;;1.00;;
38085;SDS011;23896;50.678;10.924;2023-07-13T11:55:18;2.58;;;1.30;;
38085;SDS011;23896;50.678;10.924;2023-07-13T11:57:49;2.50;;;0.85;;
38085;SDS011;23896;50.678;10.924;2023-07-13T12:00:22;3.05;;;0.80;;
38085;SDS011;23896;50.678;10.924;2023-07-13T12:03:04;1.60;;;0.85;;
38085;SDS011;23896;50.678;10.924;2023-07-13T12:05:31;1.13;;;1.02;;
38085;SDS011;23896;50.678;10.924;2023-07-13T12:07:58;1.08;;;0.80;;
38085;SDS011;23896;50.678;10.924;2023-07-13T12:10:29;1.55;;;0.90;;
38085;SDS011;23896;50.678;10.924;2023-07-13T12:13:01;4.47;;;1.10;;
38085;SDS011;23896;50.678;10.924;2023-07-13T12:15:30;0.90;;;0.70;;
38085;SDS011;23896;50.678;10.924;2023-07-13T12:18:14;1.45;;;0.90;;
38085;SDS011;23896;50.678;10.924;2023-07-13T12:20:41;1.35;;;0.90;;
38085;SDS011;23896;50.678;10.924;2023-07-13T12:23:19;2.47;;;0.80;;
38085;SDS011;23896;50.678;10.924;2023-07-13T12:25:48;1.60;;;1.10;;
38085;SDS011;23896;50.678;10.924;2023-07-13T12:28:21;1.73;;;0.88;;
38085;SDS011;23896;50.678;10.924;2023-07-13T12:31:02;1.35;;;0.82;;
38085;SDS011;23896;50.678;10.924;2023-07-13T12:33:31;1.88;;;1.08;;
38085;SDS011;23896;50.678;10.924;2023-07-13T12:36:00;1.23;;;0.80;;
38085;SDS011;23896;50.678;10.924;2023-07-13T12:38:33;1.60;;;1.10;;
38085;SDS011;23896;50.678;10.924;2023-07-13T12:41:03;1.30;;;1.00;;
38085;SDS011;23896;50.678;10.924;2023-07-13T12:43:33;1.42;;;0.90;;
38085;SDS011;23896;50.678;10.924;2023-07-13T12:46:04;1.38;;;0.90;;
38085;SDS011;23896;50.678;10.924;2023-07-13T12:48:37;1.83;;;1.08;;
38085;SDS011;23896;50.678;10.924;2023-07-13T12:51:08;1.75;;;1.00;;
38085;SDS011;23896;50.678;10.924;2023-07-13T12:53:38;1.88;;;1.10;;
38085;SDS011;23896;50.678;10.924;2023-07-13T12:56:04;2.15;;;1.10;;
38085;SDS011;23896;50.678;10.924;2023-07-13T12:58:35;1.50;;;1.25;;
38085;SDS011;23896;50.678;10.924;2023-07-13T13:01:02;1.08;;;0.98;;
38085;SDS011;23896;50.678;10.924;2023-07-13T13:03:35;2.88;;;1.30;;
38085;SDS011;23896;50.678;10.924;2023-07-13T13:06:06;2.35;;;1.38;;
38085;SDS011;23896;50.678;10.924;2023-07-13T13:08:45;3.92;;;1.13;;
38085;SDS011;23896;50.678;10.924;2023-07-13T13:11:15;1.60;;;1.50;;
38085;SDS011;23896;50.678;10.924;2023-07-13T13:13:42;1.20;;;1.10;;
38085;SDS011;23896;50.678;10.924;2023-07-13T13:16:11;1.83;;;1.23;;
38085;SDS011;23896;50.678;10.924;2023-07-13T13:18:39;2.63;;;1.30;;
38085;SDS011;23896;50.678;10.924;2023-07-13T13:21:06;2.15;;;0.93;;
38085;SDS011;23896;50.678;10.924;2023-07-13T13:23:32;3.38;;;1.30;;
38085;SDS011;23896;50.678;10.924;2023-07-13T13:25:58;0.90;;;0.90;;
38085;SDS011;23896;50.678;10.924;2023-07-13T13:28:25;3.20;;;1.45;;
38085;SDS011;23896;50.678;10.924;2023-07-13T13:30:54;1.55;;;1.17;;
38085;SDS011;23896;50.678;10.924;2023-07-13T13:33:21;1.15;;;1.00;;
38085;SDS011;23896;50.678;10.924;2023-07-13T13:35:48;0.95;;;0.80;;
38085;SDS011;23896;50.678;10.924;2023-07-13T13:38:15;1.30;;;1.02;;
38085;SDS011;23896;50.678;10.924;2023-07-13T13:40:43;1.65;;;0.82;;
38085;SDS011;23896;50.678;10.924;2023-07-13T13:43:18;1.67;;;0.90;;
38085;SDS011;23896;50.678;10.924;2023-07-13T13:45:45;1.00;;;0.90;;
38085;SDS011;23896;50.678;10.924;2023-07-13T13:48:17;0.80;;;0.77;;
38085;SDS011;23896;50.678;10.924;2023-07-13T13:50:45;0.95;;;0.85;;
38085;SDS011;23896;50.678;10.924;2023-07-13T13:53:11;1.15;;;0.80;;
38085;SDS011;23896;50.678;10.924;2023-07-13T13:55:39;1.27;;;0.70;;
38085;SDS011;23896;50.678;10.924;2023-07-13T13:58:08;1.13;;;0.90;;
38085;SDS011;23896;50.678;10.924;2023-07-13T14:00:35;1.63;;;0.98;;
38085;SDS011;23896;50.678;10.924;2023-07-13T14:03:02;1.25;;;0.80;;
38085;SDS011;23896;50.678;10.924;2023-07-13T14:05:29;0.82;;;0.80;;
38085;SDS011;23896;50.678;10.924;2023-07-13T14:07:56;0.82;;;0.70;;
38085;SDS011;23896;50.678;10.924;2023-07-13T14:10:24;0.93;;;0.70;;
38085;SDS011;23896;50.678;10.924;2023-07-13T14:12:54;0.88;;;0.70;;
38085;SDS011;23896;50.678;10.924;2023-07-13T14:15:24;0.70;;;0.70;;
38085;SDS011;23896;50.678;10.924;2023-07-13T14:17:51;0.88;;;0.75;;
38085;SDS011;23896;50.678;10.924;2023-07-13T14:20:18;3.58;;;0.95;;
38085;SDS011;23896;50.678;10.924;2023-07-13T14:22:45;2.75;;;0.93;;
38085;SDS011;23896;50.678;10.924;2023-07-13T14:25:15;2.35;;;0.90;;
38085;SDS011;23896;50.678;10.924;2023-07-13T14:27:42;0.90;;;0.70;;
38085;SDS011;23896;50.678;10.924;2023-07-13T14:30:15;2.70;;;0.90;;
38085;SDS011;23896;50.678;10.924;2023-07-13T14:32:42;2.60;;;1.10;;
38085;SDS011;23896;50.678;10.924;2023-07-13T14:35:10;1.25;;;0.98;;
38085;SDS011;23896;50.678;10.924;2023-07-13T14:37:37;1.13;;;0.85;;
38085;SDS011;23896;50.678;10.924;2023-07-13T14:40:11;1.30;;;0.82;;
38085;SDS011;23896;50.678;10.924;2023-07-13T14:42:38;2.92;;;1.00;;
38085;SDS011;23896;50.678;10.924;2023-07-13T14:50:35;1.10;;;1.00;;
38085;SDS011;23896;50.678;10.924;2023-07-13T14:53:03;1.00;;;0.80;;